CheckWX is a tool to help pilots better visualize weather data.  It is not intended as a substitute for an official pre-flight weather briefing.

12:55:10 UTC

K2DP METAR
Dare County Gunnery Range Airport
North Carolina, USA
Current

59 mins ago

K2DP 221156Z AUTO 05008KT 10SM OVC049 10/07 A3025 RMK AO2 SHRAE1058 SLPNO 60003 70003 T01000071 10106 20091 51011
Observed
Feb-22 @ 11:56 UTC
Wind
  • 050° at 8 KTS
Visibility
10 SM
Flight Rules
VFR
Cloud Levels
  • Overcast at 4,900' AGL
Temperature
10°C / 50°F
Dewpoint
C / 45°F
Humidity
82%
Altimeter
30.25" Hg
Pressure
1024.42 hPa
Previous

2 hours ago

K2DP 221058Z AUTO 05005KT 10SM OVC055 09/09 A3024 RMK AO2 SHRAE58 SLPNO
Observed
Feb-22 @ 10:58 UTC
Wind
  • 050° at 5 KTS
Visibility
10 SM
Flight Rules
VFR
Cloud Levels
  • Overcast at 5,500' AGL
Temperature
C / 48°F
Dewpoint
C / 48°F
Humidity
100%
Altimeter
30.24" Hg
Pressure
1024.02 hPa
Previous

2 hours ago

K2DP 221056Z AUTO 04005KT 10SM -SHRA OVC050 09/09 A3024 RMK AO2 SLPNO P0002 T00940086
Observed
Feb-22 @ 10:56 UTC
Wind
  • 040° at 5 KTS
Visibility
10 SM
Flight Rules
VFR
Conditions
Light Rain
Cloud Levels
  • Overcast at 5,000' AGL
Temperature
C / 48°F
Dewpoint
C / 48°F
Humidity
100%
Altimeter
30.24" Hg
Pressure
1024.02 hPa
Current Rain
0.02"